createdAt,value
2019-03-16T00:02:19.990Z,99365.30
2019-03-16T00:04:48.395Z,99371.68
2019-03-16T00:07:16.771Z,99302.50
2019-03-16T00:09:45.175Z,99372.98
2019-03-16T00:12:13.579Z,99369.28
2019-03-16T00:14:42.000Z,99361.88
2019-03-16T00:17:10.387Z,99365.94
2019-03-16T00:19:38.790Z,99365.44
2019-03-16T00:22:07.246Z,99372.76
2019-03-16T00:24:35.660Z,99367.17
2019-03-16T00:27:04.192Z,99361.56
2019-03-16T00:29:32.646Z,99358.59
2019-03-16T00:32:12.818Z,99369.06
2019-03-16T00:34:31.248Z,99366.55
2019-03-16T00:36:59.621Z,99373.17
2019-03-16T00:39:28.021Z,99372.91
2019-03-16T00:41:56.425Z,99364.34
2019-03-16T00:44:24.831Z,99371.97
2019-03-16T00:46:53.226Z,99371.27
2019-03-16T00:49:21.648Z,99370.64
2019-03-16T00:51:50.101Z,99377.98
2019-03-16T00:54:18.551Z,99366.95
2019-03-16T00:56:46.923Z,99374.42
2019-03-16T00:59:15.339Z,99372.72
2019-03-16T01:01:43.728Z,99380.73
2019-03-16T01:04:12.138Z,99383.20
2019-03-16T01:06:40.522Z,99378.34
2019-03-16T01:09:08.968Z,99386.66
2019-03-16T01:11:37.425Z,99385.22
2019-03-16T01:14:05.905Z,99382.66
2019-03-16T01:16:34.331Z,99391.11
2019-03-16T01:19:02.756Z,99392.12
2019-03-16T01:21:31.244Z,99341.56
2019-03-16T01:23:59.623Z,99395.02
2019-03-16T01:26:28.052Z,99400.44
2019-03-16T01:28:56.438Z,99399.99
2019-03-16T01:31:24.843Z,99400.69
2019-03-16T01:33:53.205Z,99358.70
2019-03-16T01:36:21.618Z,99398.63
2019-03-16T01:38:50.010Z,99404.06
2019-03-16T01:41:18.499Z,99395.34
2019-03-16T01:43:46.881Z,99402.28
2019-03-16T01:46:15.299Z,99396.67
2019-03-16T01:48:43.711Z,99398.84
2019-03-16T01:51:12.092Z,99399.00
2019-03-16T01:53:40.551Z,99397.81
2019-03-16T01:56:08.918Z,99399.84
2019-03-16T01:58:37.371Z,99400.35
2019-03-16T02:01:05.844Z,99406.47
2019-03-16T02:03:34.250Z,99399.25
2019-03-16T02:06:02.634Z,99398.66
2019-03-16T02:08:31.197Z,99389.89
2019-03-16T02:10:59.650Z,99396.70
2019-03-16T02:13:28.048Z,99381.91
2019-03-16T02:16:09.937Z,99399.98
2019-03-16T02:18:26.556Z,99399.53
2019-03-16T02:20:55.089Z,99389.06
2019-03-16T02:23:23.481Z,99390.90
2019-03-16T02:25:51.885Z,99395.34
2019-03-16T02:28:20.296Z,99396.98
2019-03-16T02:30:48.694Z,99389.05
2019-03-16T02:33:17.136Z,99403.48
2019-03-16T02:35:45.484Z,99391.56
2019-03-16T02:38:13.970Z,99398.34
2019-03-16T02:40:42.373Z,99396.01
2019-03-16T02:43:10.784Z,99394.84
2019-03-16T02:45:39.165Z,99406.77
2019-03-16T02:48:07.579Z,99394.21
2019-03-16T02:50:35.971Z,99397.16
2019-03-16T02:53:04.397Z,99402.91
2019-03-16T02:55:32.784Z,99397.29
2019-03-16T02:58:01.258Z,99390.54
2019-03-16T03:00:29.682Z,99399.67
2019-03-16T03:02:58.075Z,99404.66
2019-03-16T03:05:26.484Z,99398.22
2019-03-16T03:07:54.867Z,99400.23
2019-03-16T03:10:23.288Z,99384.61
2019-03-16T03:12:51.688Z,99384.98
2019-03-16T03:15:20.160Z,99384.34
2019-03-16T03:17:48.549Z,99384.66
2019-03-16T03:20:16.977Z,99387.53
2019-03-16T03:22:45.365Z,99388.85
2019-03-16T03:25:13.844Z,99391.19
2019-03-16T03:27:42.228Z,99388.85
2019-03-16T03:30:14.109Z,99386.80
2019-03-16T03:32:42.739Z,99383.84
2019-03-16T03:35:11.411Z,99385.89
2019-03-16T03:37:39.772Z,99384.29
2019-03-16T03:40:11.907Z,99386.63
2019-03-16T03:42:40.277Z,99373.25
2019-03-16T03:45:10.822Z,99377.73
2019-03-16T03:47:39.271Z,99387.12
2019-03-16T03:50:10.451Z,99311.40
2019-03-16T03:52:38.852Z,99367.91
2019-03-16T03:55:09.526Z,99377.17
2019-03-16T03:57:37.899Z,99374.33
2019-03-16T04:00:18.483Z,99382.02
2019-03-16T04:02:46.990Z,99364.48
2019-03-16T04:05:15.459Z,99367.77
2019-03-16T04:07:43.847Z,99363.48
2019-03-16T04:10:13.426Z,99359.27
2019-03-16T04:12:41.881Z,99368.72
2019-03-16T04:15:11.648Z,99368.22
2019-03-16T04:17:40.036Z,99377.48
2019-03-16T04:20:10.870Z,99363.37
2019-03-16T04:22:39.409Z,99372.13
2019-03-16T04:25:07.966Z,99371.81
2019-03-16T04:27:36.349Z,99368.66
2019-03-16T04:30:06.766Z,99376.10
2019-03-16T04:32:35.260Z,99380.20
2019-03-16T04:35:04.058Z,99363.09
2019-03-16T04:37:32.477Z,99362.67
2019-03-16T04:40:00.852Z,99367.88
2019-03-16T04:42:29.249Z,99364.73
2019-03-16T04:44:57.656Z,99361.73
2019-03-16T04:47:26.048Z,99349.77
2019-03-16T04:49:54.442Z,99355.38
2019-03-16T04:52:22.824Z,99354.66
2019-03-16T04:54:51.214Z,99302.61
2019-03-16T04:57:19.590Z,99358.94
2019-03-16T04:59:47.970Z,99355.59
2019-03-16T05:02:16.465Z,99349.48
2019-03-16T05:04:44.867Z,99356.92
2019-03-16T05:07:13.286Z,99358.06
2019-03-16T05:09:41.659Z,99368.20
2019-03-16T05:12:10.055Z,99380.01
2019-03-16T05:14:38.461Z,99384.17
2019-03-16T05:17:06.860Z,99374.27
2019-03-16T05:19:35.286Z,99383.58
2019-03-16T05:22:03.675Z,99388.02
2019-03-16T05:24:32.094Z,99397.04
2019-03-16T05:27:00.478Z,99400.29
2019-03-16T05:29:28.894Z,99402.75
2019-03-16T05:31:57.273Z,99401.74
2019-03-16T05:34:25.725Z,99404.70
2019-03-16T05:36:56.043Z,99412.09
2019-03-16T05:39:24.306Z,99429.73
2019-03-16T05:41:52.702Z,99423.92
2019-03-16T05:44:21.080Z,99412.31
2019-03-16T05:46:49.483Z,99423.61
2019-03-16T05:49:17.845Z,99422.41
2019-03-16T05:51:46.251Z,99437.30
2019-03-16T05:54:14.629Z,99432.88
2019-03-16T05:56:43.033Z,99428.21
2019-03-16T05:59:11.420Z,99430.45
2019-03-16T06:03:35.021Z,99450.48
2019-03-16T06:06:03.510Z,99446.34
2019-03-16T06:08:31.909Z,99460.92
2019-03-16T06:11:00.346Z,99440.55
2019-03-16T06:13:28.737Z,99458.05
2019-03-16T06:15:57.200Z,99437.08
2019-03-16T06:18:25.603Z,99454.08
2019-03-16T06:20:54.050Z,99452.56
2019-03-16T06:23:23.437Z,99457.87
2019-03-16T06:25:51.813Z,99448.53
2019-03-16T06:28:20.226Z,99458.81
2019-03-16T06:30:48.607Z,99458.63
2019-03-16T06:33:16.998Z,99454.47
2019-03-16T06:35:45.397Z,99467.40
2019-03-16T06:38:13.813Z,99469.36
2019-03-16T06:40:42.235Z,99467.72
2019-03-16T06:43:10.754Z,99464.56
2019-03-16T06:45:39.370Z,99467.91
2019-03-16T06:48:07.785Z,99460.27
2019-03-16T06:50:36.180Z,99458.57
2019-03-16T06:53:04.740Z,99464.38
2019-03-16T06:55:33.170Z,99466.93
2019-03-16T06:58:01.622Z,99473.19
2019-03-16T07:00:30.046Z,99476.78
2019-03-16T07:02:58.446Z,99480.06
2019-03-16T07:05:37.487Z,99476.95
2019-03-16T07:07:56.991Z,99476.50
2019-03-16T07:10:25.660Z,99478.68
2019-03-16T07:12:54.087Z,99478.68
2019-03-16T07:15:22.564Z,99485.63
2019-03-16T07:17:51.051Z,99481.52
2019-03-16T07:20:19.464Z,99477.10
2019-03-16T07:22:47.878Z,99490.05
2019-03-16T07:25:16.275Z,99480.16
2019-03-16T07:27:44.758Z,99485.22
2019-03-16T07:30:14.159Z,99492.91
2019-03-16T07:32:42.703Z,99500.77
2019-03-16T07:35:11.274Z,99505.30
2019-03-16T07:37:39.686Z,99504.86
2019-03-16T07:40:10.698Z,99516.47
2019-03-16T07:42:39.157Z,99516.55
2019-03-16T07:45:09.813Z,99524.11
2019-03-16T07:47:38.521Z,99534.53
2019-03-16T07:50:11.860Z,99527.98
2019-03-16T07:52:40.466Z,99537.05
2019-03-16T07:55:09.532Z,99534.80
2019-03-16T07:57:40.601Z,99536.81
2019-03-16T08:00:10.504Z,99546.09
2019-03-16T08:02:38.965Z,99543.98
2019-03-16T08:05:18.008Z,99557.11
2019-03-16T08:07:37.827Z,99563.17
2019-03-16T08:10:08.965Z,99568.33
2019-03-16T08:12:37.376Z,99561.53
2019-03-16T08:15:07.926Z,99566.19
2019-03-16T08:17:36.618Z,99565.05
2019-03-16T08:20:07.496Z,99565.95
2019-03-16T08:22:35.936Z,99555.72
2019-03-16T08:25:05.042Z,99573.25
2019-03-16T08:27:33.463Z,99559.69
2019-03-16T08:30:01.873Z,99560.25
2019-03-16T08:32:30.274Z,99555.64
2019-03-16T08:35:00.436Z,99556.67
2019-03-16T08:37:29.808Z,99565.23
2019-03-16T08:39:58.424Z,99570.84
2019-03-16T08:42:26.840Z,99561.84
2019-03-16T08:44:55.305Z,99564.86
2019-03-16T08:47:23.722Z,99557.88
2019-03-16T08:49:52.143Z,99560.79
2019-03-16T08:52:20.647Z,99571.89
2019-03-16T08:54:49.037Z,99566.53
2019-03-16T08:57:17.584Z,99562.47
2019-03-16T08:59:45.982Z,99577.69
2019-03-16T09:02:14.476Z,99559.70
2019-03-16T09:04:43.152Z,99558.88
2019-03-16T09:07:11.546Z,99565.17
2019-03-16T09:09:39.979Z,99547.69
2019-03-16T09:12:08.367Z,99543.52
2019-03-16T09:14:36.779Z,99557.38
2019-03-16T09:17:05.278Z,99544.48
2019-03-16T09:19:33.688Z,99556.92
2019-03-16T09:22:02.101Z,99547.49
2019-03-16T09:24:30.564Z,99544.91
2019-03-16T09:26:58.971Z,99566.10
2019-03-16T09:29:27.416Z,99564.91
2019-03-16T09:31:55.808Z,99559.28
2019-03-16T09:34:24.301Z,99560.92
2019-03-16T09:36:52.786Z,99564.14
2019-03-16T09:39:21.254Z,99559.47
2019-03-16T09:41:49.665Z,99567.94
2019-03-16T09:44:18.072Z,99571.97
2019-03-16T09:46:46.469Z,99572.63
2019-03-16T09:49:15.001Z,99561.02
2019-03-16T09:51:43.442Z,99562.15
2019-03-16T09:54:11.849Z,99556.86
2019-03-16T09:56:40.290Z,99545.06
2019-03-16T09:59:08.702Z,99526.88
2019-03-16T10:01:37.168Z,99538.84
2019-03-16T10:04:05.588Z,99543.83
2019-03-16T10:06:36.554Z,99538.47
2019-03-16T10:09:05.987Z,99543.87
2019-03-16T10:11:34.470Z,99544.06
2019-03-16T10:14:02.870Z,99552.02
2019-03-16T10:16:31.323Z,99548.33
2019-03-16T10:18:59.745Z,99548.77
2019-03-16T10:21:30.821Z,99538.98
2019-03-16T10:23:59.361Z,99539.70
2019-03-16T10:26:27.802Z,99541.41
2019-03-16T10:28:56.196Z,99549.09
2019-03-16T10:31:24.634Z,99544.28
2019-03-16T10:33:53.035Z,99541.34
2019-03-16T10:36:21.480Z,99537.78
2019-03-16T10:38:49.880Z,99532.48
2019-03-16T10:41:18.399Z,99530.33
2019-03-16T10:43:46.826Z,99528.97
2019-03-16T10:46:15.222Z,99535.34
2019-03-16T10:48:43.722Z,99543.81
2019-03-16T10:51:12.183Z,99536.45
2019-03-16T10:53:40.610Z,99535.31
2019-03-16T10:56:08.997Z,99534.55
2019-03-16T10:58:37.454Z,99536.20
2019-03-16T11:01:05.832Z,99527.10
2019-03-16T11:03:34.233Z,99516.94
2019-03-16T11:06:02.925Z,99533.67
2019-03-16T11:08:31.325Z,99526.91
2019-03-16T11:10:59.739Z,99527.38
2019-03-16T11:13:28.242Z,99540.89
2019-03-16T11:15:56.665Z,99545.33
2019-03-16T11:18:25.075Z,99545.44
2019-03-16T11:20:53.499Z,99545.20
2019-03-16T11:23:21.937Z,99537.92
2019-03-16T11:25:50.339Z,99534.63
2019-03-16T11:28:18.887Z,99522.44
2019-03-16T11:30:47.301Z,99516.81
2019-03-16T11:33:15.703Z,99512.20
2019-03-16T11:35:44.133Z,99502.77
2019-03-16T11:38:12.708Z,99511.44
2019-03-16T11:40:41.150Z,99527.53
2019-03-16T11:43:09.562Z,99506.06
2019-03-16T11:45:37.979Z,99501.34
2019-03-16T11:48:06.396Z,99491.33
2019-03-16T11:50:34.885Z,99493.08
2019-03-16T11:53:03.384Z,99476.20
2019-03-16T11:55:31.805Z,99480.90
2019-03-16T11:58:00.218Z,99487.30
2019-03-16T12:00:28.652Z,99501.27
2019-03-16T12:02:57.048Z,99466.56
2019-03-16T12:05:25.490Z,99458.72
2019-03-16T12:07:53.992Z,99460.36
2019-03-16T12:10:22.404Z,99462.02
2019-03-16T12:12:50.993Z,99451.98
2019-03-16T12:15:19.428Z,99453.91
2019-03-16T12:17:47.888Z,99456.47
2019-03-16T12:20:18.434Z,99461.89
2019-03-16T12:22:47.239Z,99448.66
2019-03-16T12:25:15.664Z,99454.36
2019-03-16T12:27:44.080Z,99451.42
2019-03-16T12:30:13.850Z,99446.55
2019-03-16T12:32:42.399Z,99435.20
2019-03-16T12:35:11.176Z,99438.39
2019-03-16T12:37:39.578Z,99430.41
2019-03-16T12:40:15.480Z,99437.84
2019-03-16T12:42:43.942Z,99434.10
2019-03-16T12:45:20.842Z,99424.58
2019-03-16T12:47:49.506Z,99440.06
2019-03-16T12:50:18.080Z,99425.16
2019-03-16T12:52:46.561Z,99410.01
2019-03-16T12:55:15.046Z,99421.84
2019-03-16T12:57:43.433Z,99415.48
2019-03-16T13:00:14.234Z,99418.97
2019-03-16T13:02:42.746Z,99425.51
2019-03-16T13:05:11.394Z,99414.04
2019-03-16T13:07:39.821Z,99421.29
2019-03-16T13:10:11.476Z,99426.61
2019-03-16T13:12:39.959Z,99429.67
2019-03-16T13:15:09.188Z,99419.21
2019-03-16T13:17:37.611Z,99415.30
2019-03-16T13:20:08.578Z,99401.96
2019-03-16T13:22:37.004Z,99408.88
2019-03-16T13:25:08.442Z,99415.60
2019-03-16T13:27:36.857Z,99398.16
2019-03-16T13:30:13.941Z,99399.55
2019-03-16T13:32:42.364Z,99393.33
2019-03-16T13:35:11.124Z,99404.14
2019-03-16T13:37:39.666Z,99382.38
2019-03-16T13:40:15.942Z,99386.91
2019-03-16T13:42:44.483Z,99386.27
2019-03-16T13:45:13.045Z,99394.73
2019-03-16T13:47:41.520Z,99390.27
2019-03-16T13:50:12.888Z,99386.91
2019-03-16T13:52:41.518Z,99377.73
2019-03-16T13:55:10.213Z,99370.04
2019-03-16T13:57:39.170Z,99373.69
2019-03-16T14:00:15.533Z,99374.85
2019-03-16T14:02:43.987Z,99358.95
2019-03-16T14:05:12.386Z,99376.20
2019-03-16T14:07:41.130Z,99355.84
2019-03-16T14:10:15.957Z,99339.74
2019-03-16T14:12:44.368Z,99342.21
2019-03-16T14:15:12.915Z,99343.35
2019-03-16T14:17:41.568Z,99335.56
2019-03-16T14:20:12.529Z,99290.91
2019-03-16T14:22:40.944Z,99357.87
2019-03-16T14:25:09.900Z,99329.77
2019-03-16T14:27:38.381Z,99322.55
2019-03-16T14:30:25.660Z,99335.52
2019-03-16T14:32:45.432Z,99331.27
2019-03-16T14:35:14.277Z,99324.17
2019-03-16T14:37:42.726Z,99317.09
2019-03-16T14:40:13.067Z,99325.91
2019-03-16T14:42:41.663Z,99302.28
2019-03-16T14:45:11.916Z,99314.66
2019-03-16T14:47:40.434Z,99296.20
2019-03-16T14:50:16.295Z,99308.39
2019-03-16T14:52:44.605Z,99287.23
2019-03-16T14:55:13.117Z,99305.81
2019-03-16T14:57:41.704Z,99288.84
2019-03-16T15:00:15.746Z,99277.49
2019-03-16T15:02:46.091Z,99269.94
2019-03-16T15:05:14.686Z,99260.63
2019-03-16T15:07:43.081Z,99259.66
2019-03-16T15:10:15.519Z,99251.16
2019-03-16T15:12:44.040Z,99245.00
2019-03-16T15:15:15.559Z,99246.62
2019-03-16T15:17:44.044Z,99248.85
2019-03-16T15:20:13.021Z,99243.30
2019-03-16T15:22:41.473Z,99241.16
2019-03-16T15:25:11.511Z,99238.61
2019-03-16T15:27:40.266Z,99235.44
2019-03-16T15:30:14.198Z,99236.80
2019-03-16T15:32:42.615Z,99242.19
2019-03-16T15:35:11.170Z,99238.19
2019-03-16T15:37:39.737Z,99232.88
2019-03-16T15:40:12.760Z,99238.80
2019-03-16T15:42:41.502Z,99233.68
2019-03-16T15:45:16.234Z,99225.70
2019-03-16T15:47:44.677Z,99229.30
2019-03-16T15:50:13.202Z,99226.91
2019-03-16T15:52:41.621Z,99224.13
2019-03-16T15:55:10.362Z,99217.69
2019-03-16T15:57:38.857Z,99219.72
2019-03-16T16:00:13.352Z,99217.60
2019-03-16T16:02:41.981Z,99207.31
2019-03-16T16:05:10.704Z,99202.91
2019-03-16T16:07:39.213Z,99196.98
2019-03-16T16:10:10.705Z,99203.56
2019-03-16T16:12:39.272Z,99200.09
2019-03-16T16:15:11.439Z,99192.49
2019-03-16T16:17:40.144Z,99188.64
2019-03-16T16:20:11.725Z,99181.97
2019-03-16T16:22:40.145Z,99178.98
2019-03-16T16:25:10.749Z,99171.51
2019-03-16T16:27:39.304Z,99171.39
2019-03-16T16:30:15.606Z,99163.27
2019-03-16T16:32:44.057Z,99160.95
2019-03-16T16:35:13.627Z,99156.38
2019-03-16T16:37:42.174Z,99148.47
2019-03-16T16:40:12.928Z,99147.09
2019-03-16T16:42:41.396Z,99138.11
2019-03-16T16:45:14.724Z,99133.69
2019-03-16T16:47:43.270Z,99138.84
2019-03-16T16:50:25.300Z,99138.88
2019-03-16T16:52:53.950Z,99142.35
2019-03-16T16:55:22.520Z,99142.33
2019-03-16T16:57:50.987Z,99135.31
2019-03-16T17:00:21.601Z,99132.51
2019-03-16T17:02:50.095Z,99137.08
2019-03-16T17:05:18.484Z,99132.15
2019-03-16T17:07:46.976Z,99126.83
2019-03-16T17:10:16.025Z,99130.39
2019-03-16T17:12:44.868Z,99134.43
2019-03-16T17:15:23.404Z,99132.89
2019-03-16T17:17:51.926Z,99118.98
2019-03-16T17:20:20.526Z,99120.78
2019-03-16T17:22:48.919Z,99113.84
2019-03-16T17:25:17.384Z,99112.41
2019-03-16T17:27:45.845Z,99109.48
2019-03-16T17:30:31.132Z,99103.72
2019-03-16T17:32:59.700Z,99108.55
2019-03-16T17:35:28.126Z,99106.61
2019-03-16T17:37:56.558Z,99105.41
2019-03-16T17:40:25.001Z,99103.91
2019-03-16T17:42:53.402Z,99101.47
2019-03-16T17:45:21.802Z,99099.73
2019-03-16T17:47:50.283Z,99099.92
2019-03-16T17:50:18.712Z,99100.03
2019-03-16T17:52:47.135Z,99102.94
2019-03-16T17:55:17.748Z,99107.00
2019-03-16T17:57:46.275Z,99108.28
2019-03-16T18:00:19.317Z,99103.53
2019-03-16T18:02:52.689Z,99097.33
2019-03-16T18:05:18.875Z,99099.80
2019-03-16T18:07:47.359Z,99102.47
2019-03-16T18:10:16.015Z,99103.52
2019-03-16T18:12:44.490Z,99103.56
2019-03-16T18:15:15.957Z,99102.84
2019-03-16T18:17:44.520Z,99101.52
2019-03-16T18:20:17.376Z,99101.11
2019-03-16T18:22:45.047Z,99108.42
2019-03-16T18:25:14.064Z,99106.55
2019-03-16T18:27:42.512Z,99107.38
2019-03-16T18:30:16.528Z,99113.24
2019-03-16T18:32:44.936Z,99111.39
2019-03-16T18:35:13.475Z,99111.76
2019-03-16T18:37:41.902Z,99108.19
2019-03-16T18:40:12.578Z,99104.77
2019-03-16T18:42:41.056Z,99091.20
2019-03-16T18:45:12.510Z,99091.87
2019-03-16T18:47:40.926Z,99084.95
2019-03-16T18:50:09.493Z,99080.97
2019-03-16T18:52:37.998Z,99079.02
2019-03-16T18:55:11.735Z,99085.55
2019-03-16T18:57:40.447Z,99081.13
2019-03-16T19:00:16.790Z,99080.17
2019-03-16T19:02:45.322Z,99080.48
2019-03-16T19:05:13.800Z,99090.78
2019-03-16T19:07:42.287Z,99086.68
2019-03-16T19:10:17.245Z,99082.19
2019-03-16T19:12:45.807Z,99083.14
2019-03-16T19:15:16.353Z,99075.12
2019-03-16T19:17:57.600Z,99074.72
2019-03-16T19:20:16.008Z,99078.05
2019-03-16T19:22:44.562Z,99068.19
2019-03-16T19:25:20.969Z,99065.49
2019-03-16T19:27:49.528Z,99067.13
2019-03-16T19:30:18.595Z,99063.30
2019-03-16T19:32:47.132Z,99059.69
2019-03-16T19:35:15.620Z,99044.88
2019-03-16T19:37:44.210Z,99044.88
2019-03-16T19:40:19.697Z,99042.94
2019-03-16T19:42:48.183Z,99053.98
2019-03-16T19:45:16.604Z,99047.55
2019-03-16T19:47:45.153Z,99048.91
2019-03-16T19:50:17.512Z,99045.52
2019-03-16T19:52:45.995Z,99051.50
2019-03-16T19:55:15.083Z,99038.85
2019-03-16T19:57:43.568Z,99039.98
2019-03-16T20:00:19.493Z,99037.23
2019-03-16T20:02:51.382Z,99045.00
2019-03-16T20:05:19.266Z,99039.86
2019-03-16T20:07:47.661Z,99027.74
2019-03-16T20:10:17.484Z,99030.60
2019-03-16T20:12:46.007Z,99025.52
2019-03-16T20:15:17.130Z,99030.28
2019-03-16T20:17:45.668Z,99017.30
2019-03-16T20:20:16.257Z,99022.93
2019-03-16T20:22:44.855Z,99021.14
2019-03-16T20:25:13.637Z,99023.11
2019-03-16T20:27:42.239Z,99017.95
2019-03-16T20:30:12.277Z,99032.53
2019-03-16T20:32:40.806Z,99027.11
2019-03-16T20:35:09.853Z,99027.48
2019-03-16T20:37:38.667Z,99036.03
2019-03-16T20:40:10.347Z,99027.66
2019-03-16T20:42:38.838Z,99023.38
2019-03-16T20:45:09.019Z,99012.54
2019-03-16T20:47:37.581Z,99025.56
2019-03-16T20:50:12.687Z,99024.74
2019-03-16T20:53:00.413Z,99019.16
2019-03-16T20:55:28.852Z,99016.53
2019-03-16T20:57:57.279Z,99012.80
2019-03-16T21:03:34.817Z,99012.18
2019-03-16T21:06:03.229Z,99013.85
2019-03-16T21:08:31.644Z,99010.24
2019-03-16T21:11:00.113Z,99013.06
2019-03-16T21:13:28.506Z,99008.49
2019-03-16T21:15:56.909Z,99008.81
2019-03-16T21:18:25.325Z,99003.23
2019-03-16T21:20:54.251Z,99002.25
2019-03-16T21:23:22.738Z,98997.82
2019-03-16T21:25:51.165Z,99001.78
2019-03-16T21:28:19.588Z,98996.53
2019-03-16T21:30:48.005Z,98988.66
2019-03-16T21:33:28.618Z,98993.09
2019-03-16T21:35:46.710Z,98992.75
2019-03-16T21:38:15.101Z,98989.49
2019-03-16T21:40:43.596Z,98979.31
2019-03-16T21:43:11.974Z,98978.00
2019-03-16T21:45:40.402Z,98977.67
2019-03-16T21:48:08.814Z,98976.86
2019-03-16T21:50:37.337Z,98974.91
2019-03-16T21:53:05.823Z,98973.44
2019-03-16T21:55:34.265Z,98986.70
2019-03-16T21:58:02.663Z,98967.37
2019-03-16T22:00:31.127Z,98973.94
2019-03-16T22:02:59.549Z,98971.63
2019-03-16T22:05:28.015Z,98966.04
2019-03-16T22:07:56.431Z,98970.64
2019-03-16T22:10:24.889Z,98966.52
2019-03-16T22:12:56.534Z,98957.67
2019-03-16T22:15:24.945Z,98956.19
2019-03-16T22:17:53.432Z,98956.53
2019-03-16T22:20:22.244Z,98897.17
2019-03-16T22:22:50.719Z,98890.45
2019-03-16T22:25:19.246Z,98941.77
2019-03-16T22:27:47.764Z,98893.70
2019-03-16T22:30:17.839Z,98942.42
2019-03-16T22:32:46.309Z,98945.38
2019-03-16T22:35:14.790Z,98950.61
2019-03-16T22:37:43.348Z,98948.66
2019-03-16T22:40:13.839Z,98942.92
2019-03-16T22:42:42.399Z,98939.16
2019-03-16T22:45:12.543Z,98936.84
2019-03-16T22:47:41.004Z,98940.11
2019-03-16T22:50:20.617Z,98932.25
2019-03-16T22:52:49.121Z,98932.41
2019-03-16T22:55:17.587Z,98926.66
2019-03-16T22:57:46.118Z,98923.73
2019-03-16T23:00:19.217Z,98918.50
2019-03-16T23:02:47.617Z,98914.20
2019-03-16T23:05:16.069Z,98906.50
2019-03-16T23:07:44.548Z,98911.59
2019-03-16T23:10:13.402Z,98913.39
2019-03-16T23:12:41.886Z,98906.31
2019-03-16T23:15:11.496Z,98897.80
2019-03-16T23:17:39.903Z,98895.98
2019-03-16T23:20:09.640Z,98887.63
2019-03-16T23:22:38.100Z,98885.16
2019-03-16T23:25:10.940Z,98878.45
2019-03-16T23:27:39.373Z,98872.08
2019-03-16T23:30:09.529Z,98867.97
2019-03-16T23:32:37.933Z,98862.11
2019-03-16T23:35:07.788Z,98858.48
2019-03-16T23:37:36.204Z,98858.32
2019-03-16T23:40:07.709Z,98851.44
2019-03-16T23:42:36.144Z,98847.36
2019-03-16T23:45:06.515Z,98850.62
2019-03-16T23:47:35.837Z,98846.38
2019-03-16T23:50:05.848Z,98842.46
2019-03-16T23:52:36.895Z,98831.33
2019-03-16T23:55:06.096Z,98832.77
2019-03-16T23:57:34.501Z,98822.47
